createdAt,value
2023-11-26T00:01:28.392Z,2.00
2023-11-26T00:03:56.514Z,1.50
2023-11-26T00:06:24.002Z,4.00
2023-11-26T00:08:51.300Z,3.00
2023-11-26T00:11:19.912Z,2.75
2023-11-26T00:13:46.987Z,3.50
2023-11-26T00:16:14.625Z,4.00
2023-11-26T00:18:41.859Z,1.00
2023-11-26T00:21:09.066Z,3.00
2023-11-26T00:23:36.187Z,2.25
2023-11-26T00:26:04.133Z,3.25
2023-11-26T00:28:33.150Z,0.00
2023-11-26T00:31:02.771Z,6.75
2023-11-26T00:33:30.147Z,5.50
2023-11-26T00:35:57.178Z,4.00
2023-11-26T00:38:24.844Z,4.00
2023-11-26T00:40:52.202Z,4.50
2023-11-26T00:43:21.212Z,4.75
2023-11-26T00:45:50.891Z,4.75
2023-11-26T00:48:18.474Z,5.00
2023-11-26T00:50:45.912Z,4.00
2023-11-26T00:53:15.880Z,7.25
2023-11-26T00:55:43.292Z,6.00
2023-11-26T00:58:10.557Z,5.00
2023-11-26T01:00:37.904Z,3.75
2023-11-26T01:03:08.026Z,5.75
2023-11-26T01:05:37.081Z,5.00
2023-11-26T01:08:05.565Z,4.50
2023-11-26T01:10:35.426Z,3.25
2023-11-26T01:13:02.888Z,5.00
2023-11-26T01:15:29.838Z,5.50
2023-11-26T01:17:57.681Z,5.00
2023-11-26T01:20:26.851Z,5.00
2023-11-26T01:22:55.550Z,5.25
2023-11-26T01:25:22.958Z,7.50
2023-11-26T01:27:49.903Z,6.50
2023-11-26T01:30:18.942Z,8.00
2023-11-26T01:32:46.225Z,5.75
2023-11-26T01:35:13.339Z,6.25
2023-11-26T01:37:41.982Z,7.00
2023-11-26T01:40:10.601Z,6.75
2023-11-26T01:42:37.978Z,8.00
2023-11-26T01:45:05.963Z,7.25
2023-11-26T01:47:35.628Z,7.50
2023-11-26T01:50:03.765Z,9.00
2023-11-26T01:52:31.149Z,9.25
2023-11-26T01:55:00.556Z,12.25
2023-11-26T01:57:28.137Z,14.75
2023-11-26T01:59:55.327Z,13.50
2023-11-26T02:02:23.900Z,12.25
2023-11-26T02:04:51.907Z,15.50
2023-11-26T02:07:18.972Z,12.00
2023-11-26T02:09:45.986Z,8.50
2023-11-26T02:12:15.011Z,8.25
2023-11-26T02:14:41.903Z,7.50
2023-11-26T02:17:09.171Z,8.00
2023-11-26T02:19:40.266Z,6.00
2023-11-26T02:22:07.723Z,7.25
2023-11-26T02:24:44.961Z,6.75
2023-11-26T02:27:14.564Z,7.75
2023-11-26T02:29:42.986Z,4.50
2023-11-26T02:32:10.837Z,7.25
2023-11-26T02:34:38.470Z,8.75
2023-11-26T02:37:07.357Z,7.50
2023-11-26T02:39:34.504Z,8.75
2023-11-26T02:42:05.596Z,13.25
2023-11-26T02:44:34.034Z,11.25
2023-11-26T02:47:01.123Z,8.00
2023-11-26T02:49:29.995Z,12.00
2023-11-26T02:51:56.951Z,9.75
2023-11-26T02:54:24.597Z,9.00
2023-11-26T02:56:52.128Z,6.50
2023-11-26T02:59:20.680Z,9.75
2023-11-26T03:01:56.839Z,9.50
2023-11-26T03:04:24.071Z,9.75
2023-11-26T03:06:52.487Z,10.75
2023-11-26T03:09:19.416Z,11.25
2023-11-26T03:11:48.285Z,10.25
2023-11-26T03:14:18.113Z,10.00
2023-11-26T03:16:46.580Z,10.75
2023-11-26T03:19:14.028Z,8.25
2023-11-26T03:21:43.934Z,8.75
2023-11-26T03:24:11.709Z,9.75
2023-11-26T03:26:38.582Z,11.75
2023-11-26T03:29:05.954Z,9.00
2023-11-26T03:31:33.516Z,9.00
2023-11-26T03:34:02.704Z,8.75
2023-11-26T03:36:31.389Z,8.50
2023-11-26T03:38:59.937Z,7.75
2023-11-26T03:41:27.619Z,7.50
2023-11-26T03:43:56.812Z,5.75
2023-11-26T03:46:26.997Z,7.50
2023-11-26T03:48:54.240Z,9.25
2023-11-26T03:51:23.968Z,6.00
2023-11-26T03:53:51.292Z,3.00
2023-11-26T03:56:18.571Z,7.00
2023-11-26T03:58:45.618Z,7.00
2023-11-26T04:01:15.645Z,4.50
2023-11-26T04:03:45.344Z,5.50
2023-11-26T04:06:16.712Z,6.75
2023-11-26T04:08:45.096Z,6.25
2023-11-26T04:11:12.273Z,7.75
2023-11-26T04:13:39.445Z,9.00
2023-11-26T04:16:07.719Z,6.25
2023-11-26T04:18:35.508Z,7.75
2023-11-26T04:21:03.269Z,6.50
2023-11-26T04:23:30.407Z,6.75
2023-11-26T04:25:58.969Z,8.00
2023-11-26T04:28:26.020Z,6.25
2023-11-26T04:30:53.418Z,6.00
2023-11-26T04:33:20.783Z,6.50
2023-11-26T04:35:48.699Z,5.50
2023-11-26T04:38:16.021Z,6.00
2023-11-26T04:40:43.417Z,7.25
2023-11-26T04:43:11.985Z,6.25
2023-11-26T04:45:39.830Z,6.00
2023-11-26T04:48:08.481Z,5.75
2023-11-26T04:50:35.661Z,4.25
2023-11-26T04:53:02.878Z,6.25
2023-11-26T04:55:30.122Z,4.50
2023-11-26T04:57:57.392Z,6.00
2023-11-26T05:00:26.954Z,4.75
2023-11-26T05:02:54.532Z,4.75
2023-11-26T05:05:22.009Z,4.00
2023-11-26T05:07:48.923Z,5.00
2023-11-26T05:10:16.603Z,6.50
2023-11-26T05:12:43.666Z,7.00
2023-11-26T05:15:11.142Z,4.75
2023-11-26T05:17:40.203Z,5.25
2023-11-26T05:20:15.694Z,5.00
2023-11-26T05:22:48.367Z,5.00
2023-11-26T05:25:16.012Z,5.25
2023-11-26T05:27:44.090Z,4.75
2023-11-26T05:30:11.578Z,5.75
2023-11-26T05:32:41.029Z,6.50
2023-11-26T05:35:10.935Z,4.75
2023-11-26T05:37:37.941Z,5.00
2023-11-26T05:40:09.954Z,7.50
2023-11-26T05:42:38.555Z,4.00
2023-11-26T05:45:07.083Z,4.00
2023-11-26T05:47:36.712Z,4.50
2023-11-26T05:50:08.498Z,6.50
2023-11-26T05:52:36.484Z,7.75
2023-11-26T05:55:04.380Z,4.25
2023-11-26T05:57:31.579Z,6.50
2023-11-26T05:59:59.225Z,8.00
2023-11-26T06:02:26.781Z,8.00
2023-11-26T06:04:54.124Z,8.75
2023-11-26T06:07:23.981Z,9.25
2023-11-26T06:09:50.988Z,9.75
2023-11-26T06:12:18.549Z,9.25
2023-11-26T06:14:47.405Z,9.25
2023-11-26T06:17:14.615Z,8.25
2023-11-26T06:19:41.857Z,5.75
2023-11-26T06:22:09.292Z,5.50
2023-11-26T06:24:38.188Z,7.50
2023-11-26T06:27:06.487Z,9.50
2023-11-26T06:29:33.547Z,6.25
2023-11-26T06:32:00.904Z,0.00
2023-11-26T06:34:27.990Z,6.25
2023-11-26T06:36:54.853Z,4.25
2023-11-26T06:39:22.895Z,5.00
2023-11-26T06:41:51.833Z,3.50
2023-11-26T06:44:19.176Z,3.75
2023-11-26T06:46:46.439Z,4.00
2023-11-26T06:49:14.032Z,6.50
2023-11-26T06:51:41.278Z,10.50
2023-11-26T06:54:09.597Z,9.00
2023-11-26T06:56:36.809Z,23.00
2023-11-26T06:59:05.569Z,7.50
2023-11-26T07:01:32.569Z,3.50
2023-11-26T07:03:59.760Z,4.50
2023-11-26T07:06:28.483Z,13.50
2023-11-26T07:08:55.833Z,9.50
2023-11-26T07:11:23.160Z,28.33
2023-11-26T07:13:52.148Z,2.00
2023-11-26T07:16:22.720Z,3.50
2023-11-26T07:18:50.351Z,2.50
2023-11-26T07:21:17.406Z,1.75
2023-11-26T07:23:44.645Z,2.25
2023-11-26T07:26:11.944Z,3.50
2023-11-26T07:28:40.413Z,2.25
2023-11-26T07:31:13.714Z,4.00
2023-11-26T07:33:42.491Z,3.75
2023-11-26T07:36:14.423Z,3.00
2023-11-26T07:38:43.098Z,11.75
2023-11-26T07:41:10.916Z,12.33
2023-11-26T07:43:47.546Z,10.25
2023-11-26T07:46:15.631Z,3.50
2023-11-26T07:48:48.614Z,3.50
2023-11-26T07:51:19.351Z,3.50
2023-11-26T07:53:46.610Z,3.25
2023-11-26T07:56:13.889Z,2.25
2023-11-26T07:58:43.056Z,4.00
2023-11-26T08:01:12.664Z,5.25
2023-11-26T08:03:39.813Z,7.00
2023-11-26T08:06:13.433Z,4.00
2023-11-26T08:08:43.015Z,4.00
2023-11-26T08:11:12.829Z,2.75
2023-11-26T08:13:40.495Z,3.00
2023-11-26T08:16:09.608Z,3.00
2023-11-26T08:18:37.351Z,2.50
2023-11-26T08:21:04.812Z,2.50
2023-11-26T08:23:36.277Z,2.50
2023-11-26T08:26:13.417Z,2.25
2023-11-26T08:28:43.466Z,2.00
2023-11-26T08:31:10.801Z,0.00
2023-11-26T08:33:37.830Z,1.00
2023-11-26T08:36:05.860Z,2.00
2023-11-26T08:38:35.535Z,2.25
2023-11-26T08:41:03.530Z,2.25
2023-11-26T08:43:33.019Z,2.25
2023-11-26T08:45:59.958Z,4.75
2023-11-26T08:48:26.922Z,3.75
2023-11-26T08:50:53.878Z,3.00
2023-11-26T08:53:21.774Z,5.25
2023-11-26T08:55:50.113Z,5.00
2023-11-26T08:58:17.085Z,2.25
2023-11-26T09:00:44.153Z,4.75
2023-11-26T09:03:11.291Z,3.75
2023-11-26T09:05:39.273Z,10.75
2023-11-26T09:08:08.074Z,11.50
2023-11-26T09:10:35.598Z,11.75
2023-11-26T09:13:03.905Z,5.25
2023-11-26T09:15:31.216Z,8.75
2023-11-26T09:18:00.982Z,10.50
2023-11-26T09:20:28.571Z,12.00
2023-11-26T09:22:56.001Z,11.00
2023-11-26T09:25:22.895Z,6.50
2023-11-26T09:27:50.243Z,4.00
2023-11-26T09:30:20.103Z,2.00
2023-11-26T09:32:49.037Z,2.50
2023-11-26T09:35:16.163Z,3.75
2023-11-26T09:37:43.239Z,6.00
2023-11-26T09:40:11.633Z,11.75
2023-11-26T09:42:42.107Z,9.25
2023-11-26T09:45:11.944Z,6.75
2023-11-26T09:47:40.625Z,3.50
2023-11-26T09:50:10.419Z,22.00
2023-11-26T09:52:38.179Z,25.00
2023-11-26T09:55:08.148Z,20.00
2023-11-26T09:57:38.427Z,13.00
2023-11-26T10:00:07.339Z,12.25
2023-11-26T10:02:34.557Z,11.00
2023-11-26T10:05:04.397Z,13.50
2023-11-26T10:07:37.089Z,10.25
2023-11-26T10:10:09.379Z,11.00
2023-11-26T10:12:52.184Z,10.00
2023-11-26T10:15:20.969Z,13.50
2023-11-26T10:18:02.553Z,13.75
2023-11-26T10:20:31.798Z,10.50
2023-11-26T10:22:59.571Z,10.50
2023-11-26T10:25:28.903Z,6.25
2023-11-26T10:27:56.561Z,4.00
2023-11-26T10:30:28.012Z,10.00
2023-11-26T10:33:13.716Z,11.25
2023-11-26T10:35:48.543Z,8.25
2023-11-26T10:38:16.905Z,10.25
2023-11-26T10:40:44.099Z,6.25
2023-11-26T10:43:13.637Z,6.75
2023-11-26T10:45:42.302Z,4.00
2023-11-26T10:48:15.268Z,7.50
2023-11-26T10:50:58.796Z,5.00
2023-11-26T10:53:39.570Z,11.00
2023-11-26T10:56:13.939Z,4.50
2023-11-26T10:58:49.450Z,7.00
2023-11-26T11:01:17.652Z,10.25
2023-11-26T11:03:44.985Z,9.00
2023-11-26T11:06:15.883Z,6.50
2023-11-26T11:08:43.928Z,7.50
2023-11-26T11:11:25.343Z,7.75
2023-11-26T11:13:54.156Z,8.75
2023-11-26T11:16:21.856Z,6.00
2023-11-26T11:18:48.805Z,6.50
2023-11-26T11:21:18.296Z,7.00
2023-11-26T11:23:47.329Z,3.25
2023-11-26T11:26:16.644Z,3.00
2023-11-26T11:28:47.660Z,4.00
2023-11-26T11:31:16.300Z,3.00
2023-11-26T11:34:20.225Z,5.25
2023-11-26T11:36:57.696Z,5.50
2023-11-26T11:39:42.235Z,7.00
2023-11-26T11:42:15.014Z,6.00
2023-11-26T11:44:45.267Z,6.25
2023-11-26T11:47:14.144Z,3.00
2023-11-26T11:50:08.218Z,6.00
2023-11-26T11:52:37.814Z,7.00
2023-11-26T11:55:56.335Z,2.50
2023-11-26T11:58:23.528Z,3.00
2023-11-26T12:00:58.441Z,3.75
2023-11-26T12:03:26.558Z,3.25
2023-11-26T12:05:53.745Z,1.00
2023-11-26T12:08:22.099Z,3.00
2023-11-26T12:10:50.440Z,2.00
2023-11-26T12:13:17.666Z,3.00
2023-11-26T12:15:56.554Z,4.00
2023-11-26T12:18:23.793Z,0.00
2023-11-26T12:20:51.045Z,3.25
2023-11-26T12:23:34.701Z,4.00
2023-11-26T12:26:03.164Z,3.00
2023-11-26T12:28:41.449Z,4.00
2023-11-26T12:31:08.923Z,7.75
2023-11-26T12:33:36.193Z,3.00
2023-11-26T12:36:04.351Z,3.00
2023-11-26T12:38:32.919Z,6.00
2023-11-26T12:41:00.220Z,6.00
2023-11-26T12:43:29.477Z,5.00
2023-11-26T12:46:09.112Z,1.50
2023-11-26T12:48:36.037Z,10.25
2023-11-26T12:51:05.039Z,9.50
2023-11-26T12:53:34.873Z,5.75
2023-11-26T12:56:01.857Z,6.67
2023-11-26T12:58:29.005Z,6.50
2023-11-26T13:00:57.980Z,3.00
2023-11-26T13:03:25.311Z,5.75
2023-11-26T13:05:53.728Z,6.25
2023-11-26T13:08:23.816Z,3.00
2023-11-26T13:10:57.160Z,3.00
2023-11-26T13:13:28.230Z,6.00
2023-11-26T13:15:57.005Z,3.75
2023-11-26T13:18:24.634Z,6.00
2023-11-26T13:20:51.787Z,2.50
2023-11-26T13:23:20.431Z,7.50
2023-11-26T13:25:48.023Z,8.00
2023-11-26T13:28:19.726Z,6.75
2023-11-26T13:30:47.324Z,8.50
2023-11-26T13:33:16.324Z,3.25
2023-11-26T13:35:43.656Z,3.75
2023-11-26T13:38:15.273Z,5.00
2023-11-26T13:40:45.166Z,5.25
2023-11-26T13:43:13.947Z,9.00
2023-11-26T13:45:42.455Z,6.00
2023-11-26T13:48:12.018Z,6.00
2023-11-26T13:50:40.500Z,6.00
2023-11-26T13:53:08.333Z,7.25
2023-11-26T13:55:36.182Z,7.00
2023-11-26T13:58:04.384Z,6.75
2023-11-26T14:00:32.308Z,7.00
2023-11-26T14:03:01.004Z,9.00
2023-11-26T14:05:30.405Z,10.50
2023-11-26T14:07:59.384Z,6.00
2023-11-26T14:10:26.560Z,7.75
2023-11-26T14:12:55.314Z,9.50
2023-11-26T14:15:22.664Z,10.50
2023-11-26T14:17:49.637Z,7.25
2023-11-26T14:20:20.064Z,9.75
2023-11-26T14:22:49.627Z,6.75
2023-11-26T14:25:18.327Z,8.00
2023-11-26T14:27:47.556Z,8.00
2023-11-26T14:30:16.659Z,6.25
2023-11-26T14:32:46.636Z,6.00
2023-11-26T14:35:14.548Z,6.00
2023-11-26T14:37:43.104Z,5.25
2023-11-26T14:40:11.027Z,6.75
2023-11-26T14:42:38.526Z,5.25
2023-11-26T14:45:06.039Z,5.25
2023-11-26T14:47:33.612Z,4.00
2023-11-26T14:50:00.944Z,8.00
2023-11-26T14:52:28.183Z,10.25
2023-11-26T14:54:56.817Z,8.00
2023-11-26T14:57:24.002Z,10.50
2023-11-26T14:59:50.955Z,12.50
2023-11-26T15:02:19.595Z,11.50
2023-11-26T15:04:47.394Z,7.75
2023-11-26T15:07:15.058Z,4.00
2023-11-26T15:09:42.448Z,12.00
2023-11-26T15:12:11.910Z,13.00
2023-11-26T15:14:39.073Z,8.50
2023-11-26T15:17:06.846Z,8.75
2023-11-26T15:19:33.881Z,8.50
2023-11-26T15:22:01.025Z,8.00
2023-11-26T15:24:28.376Z,7.75
2023-11-26T15:26:59.459Z,6.00
2023-11-26T15:29:29.832Z,6.75
2023-11-26T15:32:00.246Z,6.00
2023-11-26T15:34:27.385Z,7.00
2023-11-26T15:36:54.616Z,8.50
2023-11-26T15:39:21.972Z,6.50
2023-11-26T15:41:48.844Z,7.00
2023-11-26T15:44:16.089Z,6.00
2023-11-26T15:46:45.322Z,5.50
2023-11-26T15:49:13.225Z,6.00
2023-11-26T15:51:41.380Z,8.00
2023-11-26T15:54:08.720Z,7.00
2023-11-26T15:56:35.710Z,5.00
2023-11-26T15:59:02.778Z,5.75
2023-11-26T16:01:30.355Z,5.50
2023-11-26T16:03:59.039Z,9.00
2023-11-26T16:06:27.614Z,9.75
2023-11-26T16:08:55.022Z,5.75
2023-11-26T16:11:22.098Z,8.50
2023-11-26T16:13:50.509Z,7.25
2023-11-26T16:16:17.808Z,9.75
2023-11-26T16:18:45.162Z,8.25
2023-11-26T16:21:16.380Z,5.00
2023-11-26T16:23:44.911Z,9.25
2023-11-26T16:26:11.930Z,11.50
2023-11-26T16:28:39.043Z,12.50
2023-11-26T16:31:08.266Z,15.25
2023-11-26T16:33:45.466Z,10.25
2023-11-26T16:36:19.181Z,12.00
2023-11-26T16:38:46.538Z,11.50
2023-11-26T16:41:13.729Z,21.75
2023-11-26T16:43:42.666Z,20.00
2023-11-26T16:46:12.447Z,20.50
2023-11-26T16:48:40.819Z,24.50
2023-11-26T16:51:09.208Z,26.75
2023-11-26T16:53:38.506Z,32.25
2023-11-26T16:56:09.302Z,27.50
2023-11-26T16:58:38.042Z,20.25
2023-11-26T17:01:12.703Z,19.00
2023-11-26T17:03:41.072Z,9.00
2023-11-26T17:06:09.695Z,11.00
2023-11-26T17:08:38.027Z,7.50
2023-11-26T17:11:07.420Z,9.00
2023-11-26T17:13:34.466Z,12.75
2023-11-26T17:16:01.673Z,9.75
2023-11-26T17:18:28.777Z,10.00
2023-11-26T17:20:56.139Z,6.00
2023-11-26T17:23:23.037Z,8.25
2023-11-26T17:25:51.641Z,5.00
2023-11-26T17:28:20.254Z,5.50
2023-11-26T17:30:50.576Z,8.50
2023-11-26T17:33:20.375Z,6.75
2023-11-26T17:35:48.345Z,4.50
2023-11-26T17:38:16.266Z,11.00
2023-11-26T17:40:43.255Z,6.50
2023-11-26T17:43:14.855Z,6.00
2023-11-26T17:45:42.566Z,8.25
2023-11-26T17:48:09.692Z,7.50
2023-11-26T17:50:37.017Z,8.00
2023-11-26T17:53:10.429Z,8.00
2023-11-26T17:55:39.835Z,10.00
2023-11-26T17:58:07.067Z,21.75
2023-11-26T18:00:36.180Z,6.75
2023-11-26T18:03:04.412Z,9.25
2023-11-26T18:05:31.610Z,5.75
2023-11-26T18:07:58.638Z,7.50
2023-11-26T18:10:25.965Z,7.50
2023-11-26T18:12:53.749Z,10.00
2023-11-26T18:15:20.918Z,14.75
2023-11-26T18:17:53.249Z,22.50
2023-11-26T18:20:20.493Z,27.00
2023-11-26T18:22:47.765Z,31.67
2023-11-26T18:25:15.137Z,31.00
2023-11-26T18:27:42.936Z,29.67
2023-11-26T18:30:12.050Z,24.75
2023-11-26T18:32:39.193Z,18.75
2023-11-26T18:35:08.771Z,22.00
2023-11-26T18:37:38.211Z,9.50
2023-11-26T18:40:07.194Z,5.75
2023-11-26T18:42:34.156Z,10.00
2023-11-26T18:45:01.369Z,12.50
2023-11-26T18:47:28.936Z,11.75
2023-11-26T18:49:56.127Z,9.50
2023-11-26T18:52:24.890Z,9.25
2023-11-26T18:54:52.367Z,9.00
2023-11-26T18:57:19.795Z,10.00
2023-11-26T18:59:47.182Z,4.75
2023-11-26T19:02:16.938Z,5.25
2023-11-26T19:04:44.905Z,8.25
2023-11-26T19:07:14.273Z,11.50
2023-11-26T19:09:43.324Z,7.25
2023-11-26T19:12:11.469Z,8.25
2023-11-26T19:14:38.788Z,5.00
2023-11-26T19:17:05.857Z,5.00
2023-11-26T19:19:33.019Z,6.50
2023-11-26T19:22:00.452Z,9.25
2023-11-26T19:24:28.435Z,9.00
2023-11-26T19:26:56.797Z,6.50
2023-11-26T19:29:23.850Z,6.75
2023-11-26T19:31:51.865Z,4.25
2023-11-26T19:34:19.024Z,7.00
2023-11-26T19:36:47.445Z,10.00
2023-11-26T19:39:14.583Z,7.50
2023-11-26T19:41:41.888Z,7.25
2023-11-26T19:44:10.449Z,8.00
2023-11-26T19:46:40.864Z,7.25
2023-11-26T19:49:08.174Z,7.25
2023-11-26T19:51:35.098Z,9.25
2023-11-26T19:54:02.295Z,9.25
2023-11-26T19:56:29.745Z,13.25
2023-11-26T19:58:56.873Z,10.75
2023-11-26T20:01:25.523Z,14.50
2023-11-26T20:03:53.042Z,21.25
2023-11-26T20:06:22.271Z,24.50
2023-11-26T20:08:50.643Z,17.25
2023-11-26T20:11:17.635Z,13.75
2023-11-26T20:13:44.694Z,16.75
2023-11-26T20:16:14.358Z,20.25
2023-11-26T20:18:43.364Z,12.50
2023-11-26T20:21:10.568Z,12.50
2023-11-26T20:23:41.401Z,11.25
2023-11-26T20:26:08.848Z,11.75
2023-11-26T20:28:36.420Z,11.25
2023-11-26T20:31:09.029Z,5.75
2023-11-26T20:33:39.170Z,5.00
2023-11-26T20:36:19.005Z,5.00
2023-11-26T20:38:46.436Z,9.00
2023-11-26T20:41:15.256Z,6.25
2023-11-26T20:43:42.154Z,6.25
2023-11-26T20:46:20.728Z,7.00
2023-11-26T20:48:49.650Z,7.50
2023-11-26T20:51:21.609Z,7.00
2023-11-26T20:53:48.819Z,5.25
2023-11-26T20:56:22.895Z,5.50
2023-11-26T20:58:50.194Z,7.50
2023-11-26T21:01:17.954Z,5.25
2023-11-26T21:03:45.018Z,5.00
2023-11-26T21:06:12.669Z,7.50
2023-11-26T21:08:41.389Z,5.50
2023-11-26T21:11:10.840Z,5.00
2023-11-26T21:13:39.141Z,4.75
2023-11-26T21:16:11.501Z,5.00
2023-11-26T21:18:38.798Z,4.00
2023-11-26T21:21:05.870Z,7.00
2023-11-26T21:23:32.822Z,11.75
2023-11-26T21:26:02.563Z,6.25
2023-11-26T21:28:30.273Z,5.25
2023-11-26T21:30:57.333Z,10.25
2023-11-26T21:33:27.261Z,20.50
2023-11-26T21:35:55.076Z,11.25
2023-11-26T21:38:22.961Z,9.25
2023-11-26T21:41:01.142Z,6.00
2023-11-26T21:43:33.510Z,10.00
2023-11-26T21:46:00.494Z,5.75
2023-11-26T21:48:27.657Z,6.00
2023-11-26T21:50:54.537Z,5.00
2023-11-26T21:53:21.477Z,6.00
2023-11-26T21:55:49.250Z,7.00
2023-11-26T21:58:16.200Z,6.75
2023-11-26T22:00:45.933Z,5.75
2023-11-26T22:03:13.164Z,5.00
2023-11-26T22:05:40.672Z,6.25
2023-11-26T22:08:08.275Z,5.00
2023-11-26T22:10:35.223Z,5.00
2023-11-26T22:13:02.473Z,5.25
2023-11-26T22:15:31.030Z,4.00
2023-11-26T22:17:59.372Z,4.00
2023-11-26T22:20:26.876Z,3.00
2023-11-26T22:22:54.020Z,4.75
2023-11-26T22:25:21.046Z,5.00
2023-11-26T22:27:48.200Z,4.75
2023-11-26T22:30:17.141Z,6.00
2023-11-26T22:32:45.465Z,5.75
2023-11-26T22:35:14.194Z,5.75
2023-11-26T22:37:48.509Z,6.50
2023-11-26T22:40:16.536Z,6.00
2023-11-26T22:42:43.834Z,7.75
2023-11-26T22:45:11.096Z,7.25
2023-11-26T22:47:38.996Z,7.50
2023-11-26T22:50:08.350Z,5.50
2023-11-26T22:52:36.646Z,6.00
2023-11-26T22:55:04.854Z,5.00
2023-11-26T22:57:31.964Z,6.00
2023-11-26T22:59:59.348Z,7.00
2023-11-26T23:02:26.383Z,6.50
2023-11-26T23:04:55.303Z,7.00
2023-11-26T23:07:22.496Z,5.00
2023-11-26T23:09:51.813Z,6.00
2023-11-26T23:12:19.001Z,6.50
2023-11-26T23:14:45.931Z,8.25
2023-11-26T23:17:15.992Z,7.25
2023-11-26T23:19:43.103Z,7.00
2023-11-26T23:22:10.011Z,6.00
2023-11-26T23:24:37.249Z,5.25
2023-11-26T23:27:05.651Z,6.00
2023-11-26T23:29:33.109Z,6.75
2023-11-26T23:32:00.017Z,5.25
2023-11-26T23:34:27.774Z,6.50
2023-11-26T23:36:54.812Z,12.25
2023-11-26T23:39:22.462Z,11.50
2023-11-26T23:41:49.583Z,19.25
2023-11-26T23:44:18.088Z,21.33
2023-11-26T23:46:45.413Z,18.50
2023-11-26T23:49:13.830Z,29.00
2023-11-26T23:51:41.009Z,19.25
2023-11-26T23:54:08.048Z,12.75
2023-11-26T23:56:34.924Z,18.00
2023-11-26T23:59:03.634Z,8.00
